WetterOnline ( https://www.wetteronline.de )

Wetter aktuell Fürstenzell

Aktuelles Wetter: Fürstenzell (480m)

6-stündlich | Neueste Meldungen
Ortszeit Temperatur Wetter
Fr, 05.03. 1:00 6.1° C leichter Regen
Do, 04.03. 19:00 7.5° C bedeckt
Do, 04.03. 13:00 7.0° C bedeckt
Do, 04.03. 7:00 2.3° C bedeckt
Do, 04.03. 1:00 3.3° C bewölkt
Mi, 03.03. 19:00 7.0° C bewölkt
Mi, 03.03. 13:00 5.5° C wolkig
Mi, 03.03. 7:00 -2.0° C fast wolkenlos
Ortszeit Temperatur Wetter
Fr, 05.03. 1:00 6.1° C leichter Regen
Fr, 05.03. 0:50 6.1° C leichter Regen
Fr, 05.03. 0:40 6.0° C leichter Regen
Fr, 05.03. 0:30 4.7° C leichter Regen
Fr, 05.03. 0:20 4.7° C leichter Regen
Fr, 05.03. 0:10 5.1° C leichter Regen
Fr, 05.03. 0:00 5.6° C wolkig
Do, 04.03. 23:30 6.7° C bewölkt
Do, 04.03. 23:00 5.7° C bedeckt
Do, 04.03. 22:30 6.1° C leichter Regen
Do, 04.03. 22:00 5.9° C leichter Regen
Ortszeit Relative Feuchte Sichtweite
Fr, 05.03. 1:00 82% 8 km
Do, 04.03. 19:00 64% 26 km
Do, 04.03. 13:00 71% 19 km
Do, 04.03. 7:00 93% 5.0 km
Do, 04.03. 1:00 91% 7 km
Mi, 03.03. 19:00 66% 26 km
Mi, 03.03. 13:00 88% 9 km
Mi, 03.03. 7:00 97% 3.7 km
Ortszeit Relative Feuchte Sichtweite
Fr, 05.03. 1:00 82% 8 km
Fr, 05.03. 0:50 82% -
Fr, 05.03. 0:40 79% -
Fr, 05.03. 0:30 86% 10 km
Fr, 05.03. 0:20 86% -
Fr, 05.03. 0:10 82% -
Fr, 05.03. 0:00 77% 22 km
Do, 04.03. 23:30 69% 29 km
Do, 04.03. 23:00 75% 20 km
Do, 04.03. 22:30 74% 22 km
Do, 04.03. 22:00 74% 20 km
Ortszeit Niederschlagsmenge Niederschlagsart
Fr, 05.03. 1:00 0.3 l/m2 in 6 Std. Regen
Do, 04.03. 19:00 0.0 l/m2 in 12 Std. -
Do, 04.03. 13:00 0.0 l/m2 in 6 Std. -
Do, 04.03. 7:00 0.0 l/m2 in 12 Std. -
Do, 04.03. 1:00 0.0 l/m2 in 6 Std. -
Mi, 03.03. 19:00 0.0 l/m2 in 12 Std. -
Mi, 03.03. 13:00 0.0 l/m2 in 6 Std. -
Mi, 03.03. 7:00 0.0 l/m2 in 12 Std. -
Ortszeit Niederschlagsmenge Niederschlagsart
Fr, 05.03. 1:00 0.3 l/m2 in 1 Std. Regen
Fr, 05.03. 0:50 keine Meldung -
Fr, 05.03. 0:40 keine Meldung -
Fr, 05.03. 0:30 0.1 l/m2 in 1 Std. -
Fr, 05.03. 0:20 keine Meldung -
Fr, 05.03. 0:10 keine Meldung -
Fr, 05.03. 0:00 0.0 l/m2 in 1 Std. -
Do, 04.03. 23:30 0.0 l/m2 in 1 Std. -
Do, 04.03. 23:00 0.1 l/m2 in 1 Std. Regen
Do, 04.03. 22:30 0.1 l/m2 in 1 Std. -
Do, 04.03. 22:00 0.1 l/m2 in 1 Std. Regen
Ortszeit Stärke Spitze Richtung
km/h Bft. km/h Grad Sektor
Fr, 05.03. 1:00 24 4 35 250° W
Do, 04.03. 19:00 0 0 11 - -
Do, 04.03. 13:00 4 1 22 140° SO
Do, 04.03. 7:00 2 1 11 360° N
Do, 04.03. 1:00 6 1 9 50° NO
Mi, 03.03. 19:00 4 1 11 170° S
Mi, 03.03. 13:00 4 1 14 220° SW
Mi, 03.03. 7:00 7 2 11 40° NO
Ortszeit Stärke Spitze Richtung
km/h Bft. km/h Grad Sektor
Fr, 05.03. 1:00 24 4 35 250° W
Fr, 05.03. 0:50 24 4 - 250° W
Fr, 05.03. 0:40 17 3 - 250° W
Fr, 05.03. 0:30 11 2 14 230° SW
Fr, 05.03. 0:20 11 2 - 230° SW
Fr, 05.03. 0:10 9 2 - 210° SW
Fr, 05.03. 0:00 7 2 11 220° SW
Do, 04.03. 23:30 7 2 7 260° W
Do, 04.03. 23:00 4 1 7 200° S
Do, 04.03. 22:30 4 1 7 30° NO
Do, 04.03. 22:00 4 1 7 30° NO
Ortszeit Untergrenze Bedeckung Gattung
total tief tief mittel hoch
Fr, 05.03. 1:00 810 m 7/8 7/8 - - -
Do, 04.03. 19:00 2400 m 8/8 8/8 - - -
Do, 04.03. 13:00 2700 m 8/8 8/8 - - -
Do, 04.03. 7:00 1800 m 8/8 8/8 - - -
Do, 04.03. 1:00 3900 m 8/8 4/8 - - -
Mi, 03.03. 19:00 5400 m 8/8 5/8 - - -
Mi, 03.03. 13:00 8100 m 7/8 0/8 - - -
Mi, 03.03. 7:00 <30 m 1/8 0/8 - - -
Ortszeit Bedeckungsgrad in Achtel und Wolkenuntergrenze
Fr, 05.03. 1:00 3(810m) 6(1200m) 7(1500m)
Fr, 05.03. 0:50 3(810m) 6(1200m) 7(1500m)
Fr, 05.03. 0:40 6(1230m) 8(1500m)
Fr, 05.03. 0:30 2(1140m) 7(1500m) 8(1800m)
Fr, 05.03. 0:20 2(1140m) 7(1500m) 8(1800m)
Fr, 05.03. 0:10 4(1410m) 7(1500m) 8(1800m)
Fr, 05.03. 0:00 4(1500m) 5(1800m) 7(3600m)
Do, 04.03. 23:30 1(1500m) 6(2100m) 7(2700m)
Do, 04.03. 23:00 3(1290m) 5(2100m) 8(2400m)
Do, 04.03. 22:30 7(1470m) 7(1500m)
Do, 04.03. 22:00 1(1140m) 7(1800m) 8(2700m)
Ortszeit Luftdruck NN (hPa) Tendenz (hPa in 3 Std.)
Fr, 05.03. 1:00 1016 - 0,1
Do, 04.03. 19:00 1016 - 1,1
Do, 04.03. 13:00 1020 - 2,2
Do, 04.03. 7:00 1024 - 0,7
Do, 04.03. 1:00 1027 - 1,5
Mi, 03.03. 19:00 1029 - 1,0
Mi, 03.03. 13:00 1032 - 1,0
Mi, 03.03. 7:00 1034 + 0,1
Ortszeit Luftdruck NN (hPa) Tendenz (hPa in 3 Std.)
Fr, 05.03. 1:00 1016 - 0,1
Fr, 05.03. 0:50 1016 keine Meldung
Fr, 05.03. 0:40 1015 keine Meldung
Fr, 05.03. 0:30 1016 - 0,4
Fr, 05.03. 0:20 1016 keine Meldung
Fr, 05.03. 0:10 1015 keine Meldung
Fr, 05.03. 0:00 1015 - 0,7
Do, 04.03. 23:30 1015 - 0,8
Do, 04.03. 23:00 1016 - 0,7
Do, 04.03. 22:30 1016 - 0,8
Do, 04.03. 22:00 1016 - 0,9
Ortszeit Schneehöhe (cm)
Fr, 05.03. 1:00 0
Do, 04.03. 19:00 0
Do, 04.03. 13:00 0
Do, 04.03. 7:00 0
Do, 04.03. 1:00 0
Mi, 03.03. 19:00 0
Mi, 03.03. 13:00 0
Mi, 03.03. 7:00 0
Ortszeit Schneehöhe (cm)
Fr, 05.03. 1:00 0
Fr, 05.03. 0:50 0
Fr, 05.03. 0:40 0
Fr, 05.03. 0:30 0
Fr, 05.03. 0:20 0
Fr, 05.03. 0:10 0
Fr, 05.03. 0:00 0
Do, 04.03. 23:30 0
Do, 04.03. 23:00 0
Do, 04.03. 22:30 0
Do, 04.03. 22:00 0
Link zu dieser Seite / Seite empfehlen

Das Wetter in ...